createdAt,value
2023-05-25T00:01:02.982Z,8.32
2023-05-25T00:03:36.541Z,8.77
2023-05-25T00:06:08.289Z,8.15
2023-05-25T00:08:43.186Z,8.00
2023-05-25T00:11:14.972Z,8.57
2023-05-25T00:13:45.827Z,8.95
2023-05-25T00:16:17.005Z,8.63
2023-05-25T00:18:50.182Z,9.35
2023-05-25T00:21:21.749Z,9.23
2023-05-25T00:23:55.312Z,10.32
2023-05-25T00:26:27.179Z,9.30
2023-05-25T00:29:00.660Z,9.40
2023-05-25T00:31:33.200Z,9.48
2023-05-25T00:34:04.419Z,9.85
2023-05-25T00:36:36.091Z,9.43
2023-05-25T00:39:10.447Z,10.00
2023-05-25T00:41:45.206Z,9.00
2023-05-25T00:44:22.244Z,10.27
2023-05-25T00:46:55.033Z,9.30
2023-05-25T00:49:26.187Z,9.05
2023-05-25T00:52:01.394Z,9.63
2023-05-25T00:54:38.054Z,10.15
2023-05-25T00:57:11.721Z,9.70
2023-05-25T00:59:48.110Z,10.52
2023-05-25T01:02:22.416Z,10.23
2023-05-25T01:05:00.044Z,9.80
2023-05-25T01:07:34.230Z,10.00
2023-05-25T01:10:10.111Z,10.40
2023-05-25T01:12:43.627Z,10.52
2023-05-25T01:15:16.922Z,9.80
2023-05-25T01:17:54.305Z,9.82
2023-05-25T01:20:25.598Z,10.32
2023-05-25T01:23:03.060Z,9.48
2023-05-25T01:25:38.707Z,9.50
2023-05-25T01:28:14.350Z,10.65
2023-05-25T01:30:49.568Z,9.60
2023-05-25T01:33:22.262Z,10.13
2023-05-25T01:35:54.266Z,9.93
2023-05-25T01:38:28.475Z,9.45
2023-05-25T01:40:59.361Z,10.38
2023-05-25T01:43:31.255Z,8.80
2023-05-25T01:48:46.054Z,10.68
2023-05-25T01:51:24.779Z,10.05
2023-05-25T01:54:04.585Z,9.75
2023-05-25T01:56:39.154Z,8.57
2023-05-25T01:59:12.134Z,9.85
2023-05-25T02:01:44.240Z,8.95
2023-05-25T02:04:15.947Z,8.93
2023-05-25T02:06:46.900Z,10.15
2023-05-25T02:09:20.926Z,9.98
2023-05-25T02:11:52.771Z,9.27
2023-05-25T02:14:24.118Z,8.77
2023-05-25T02:16:55.634Z,9.10
2023-05-25T02:19:27.018Z,9.18
2023-05-25T02:21:57.979Z,10.65
2023-05-25T02:24:35.177Z,9.57
2023-05-25T02:27:06.153Z,9.27
2023-05-25T02:29:38.117Z,8.90
2023-05-25T02:32:10.351Z,9.65
2023-05-25T02:34:41.622Z,10.70
2023-05-25T02:39:46.133Z,11.15
2023-05-25T02:42:17.861Z,11.98
2023-05-25T02:44:49.687Z,11.95
2023-05-25T02:47:22.033Z,11.93
2023-05-25T02:49:53.536Z,11.65
2023-05-25T02:55:00.215Z,11.07
2023-05-25T02:57:40.250Z,12.35
2023-05-25T03:00:14.996Z,14.35
2023-05-25T03:02:47.228Z,13.75
2023-05-25T03:05:21.777Z,12.27
2023-05-25T03:07:53.005Z,11.98
2023-05-25T03:10:27.357Z,13.73
2023-05-25T03:12:58.507Z,13.27
2023-05-25T03:15:29.788Z,14.43
2023-05-25T03:20:37.731Z,12.48
2023-05-25T03:23:08.973Z,13.85
2023-05-25T03:25:43.994Z,13.98
2023-05-25T03:28:15.041Z,13.13
2023-05-25T03:30:46.492Z,14.95
2023-05-25T03:33:17.819Z,13.27
2023-05-25T03:35:52.232Z,12.30
2023-05-25T03:40:56.764Z,13.75
2023-05-25T03:43:27.758Z,13.20
2023-05-25T03:45:59.265Z,15.18
2023-05-25T03:48:30.314Z,13.80
2023-05-25T03:51:01.608Z,14.75
2023-05-25T03:53:32.569Z,14.63
2023-05-25T03:56:06.467Z,14.90
2023-05-25T03:58:37.352Z,15.63
2023-05-25T04:01:10.036Z,13.77
2023-05-25T04:03:41.030Z,16.10
2023-05-25T04:06:12.380Z,17.90
2023-05-25T04:08:44.421Z,15.60
2023-05-25T04:11:18.241Z,16.35
2023-05-25T04:13:49.177Z,18.88
2023-05-25T04:16:22.004Z,17.55
2023-05-25T04:18:53.021Z,20.33
2023-05-25T04:21:25.232Z,21.85
2023-05-25T04:23:56.845Z,22.52
2023-05-25T04:26:32.056Z,19.60
2023-05-25T04:29:04.957Z,23.38
2023-05-25T04:31:59.411Z,20.55
2023-05-25T04:34:49.184Z,22.98
2023-05-25T04:37:27.755Z,23.13
2023-05-25T04:40:01.957Z,26.00
2023-05-25T04:42:38.157Z,24.25
2023-05-25T04:45:12.580Z,23.80
2023-05-25T04:47:43.947Z,23.20
2023-05-25T04:50:16.215Z,26.42
2023-05-25T04:52:47.814Z,25.27
2023-05-25T04:55:19.147Z,25.90
2023-05-25T04:57:53.546Z,27.50
2023-05-25T05:00:25.356Z,23.90
2023-05-25T05:02:59.123Z,24.05
2023-05-25T05:05:30.924Z,23.70
2023-05-25T05:08:04.665Z,25.40
2023-05-25T05:10:36.569Z,24.08
2023-05-25T05:13:11.550Z,26.92
2023-05-25T05:15:42.819Z,24.60
2023-05-25T05:18:14.479Z,24.30
2023-05-25T05:20:45.561Z,24.88
2023-05-25T05:23:17.268Z,24.35
2023-05-25T05:25:49.013Z,28.00
2023-05-25T05:28:27.611Z,28.90
2023-05-25T05:30:58.838Z,26.23
2023-05-25T05:33:30.838Z,25.85
2023-05-25T05:36:04.228Z,26.02
2023-05-25T05:38:35.768Z,28.75
2023-05-25T05:41:11.615Z,26.48
2023-05-25T05:43:46.717Z,26.95
2023-05-25T05:46:17.686Z,25.63
2023-05-25T05:48:48.948Z,27.98
2023-05-25T05:53:51.261Z,26.90
2023-05-25T05:56:22.649Z,24.15
2023-05-25T05:58:56.906Z,29.15
2023-05-25T06:01:28.105Z,25.40
2023-05-25T06:03:59.665Z,24.73
2023-05-25T06:06:35.212Z,26.38
2023-05-25T06:09:08.167Z,28.42
2023-05-25T06:11:40.564Z,26.63
2023-05-25T06:14:16.477Z,27.27
2023-05-25T06:16:49.171Z,30.30
2023-05-25T06:19:21.786Z,29.88
2023-05-25T06:21:53.284Z,29.17
2023-05-25T06:24:26.016Z,27.67
2023-05-25T06:26:57.018Z,25.48
2023-05-25T06:29:31.160Z,26.15
2023-05-25T06:32:03.393Z,25.95
2023-05-25T06:34:37.366Z,24.45
2023-05-25T06:37:09.832Z,24.55
2023-05-25T06:39:43.514Z,24.38
2023-05-25T06:42:15.466Z,26.55
2023-05-25T06:47:31.317Z,26.30
2023-05-25T06:50:02.839Z,24.23
2023-05-25T06:52:33.896Z,28.35
2023-05-25T06:55:05.706Z,29.92
2023-05-25T06:57:37.038Z,30.35
2023-05-25T07:00:15.112Z,30.42
2023-05-25T07:02:46.747Z,28.73
2023-05-25T07:05:18.253Z,28.85
2023-05-25T07:07:49.423Z,25.73
2023-05-25T07:10:21.159Z,26.95
2023-05-25T07:12:52.831Z,28.83
2023-05-25T07:15:27.138Z,28.13
2023-05-25T07:17:59.154Z,26.30
2023-05-25T07:20:30.724Z,27.27
2023-05-25T07:23:02.282Z,28.88
2023-05-25T07:25:33.920Z,27.75
2023-05-25T07:28:04.979Z,26.23
2023-05-25T07:30:38.913Z,27.15
2023-05-25T07:33:10.329Z,26.73
2023-05-25T07:35:41.688Z,25.98
2023-05-25T07:38:13.090Z,26.17
2023-05-25T07:40:44.898Z,25.33
2023-05-25T07:43:15.823Z,27.42
2023-05-25T07:45:49.731Z,27.60
2023-05-25T07:48:20.763Z,29.63
2023-05-25T07:50:52.761Z,26.95
2023-05-25T07:53:23.705Z,27.67
2023-05-25T07:55:56.115Z,27.25
2023-05-25T07:58:27.026Z,27.42
2023-05-25T08:01:00.971Z,27.60
2023-05-25T08:03:40.370Z,27.13
2023-05-25T08:06:20.125Z,27.30
2023-05-25T08:08:51.018Z,28.30
2023-05-25T08:11:27.133Z,30.10
2023-05-25T08:13:58.328Z,34.50
2023-05-25T08:16:32.317Z,30.60
2023-05-25T08:19:03.317Z,29.65
2023-05-25T08:21:38.051Z,31.73
2023-05-25T08:24:09.720Z,31.10
2023-05-25T08:26:53.075Z,30.17
2023-05-25T08:29:25.747Z,29.75
2023-05-25T08:31:59.648Z,30.20
2023-05-25T08:34:30.532Z,28.45
2023-05-25T08:37:02.001Z,29.48
2023-05-25T08:39:34.797Z,27.48
2023-05-25T08:42:07.383Z,26.15
2023-05-25T08:44:39.994Z,27.15
2023-05-25T08:47:15.832Z,27.45
2023-05-25T08:49:48.403Z,27.25
2023-05-25T08:52:24.726Z,23.80
2023-05-25T08:54:58.533Z,23.55
2023-05-25T08:57:37.667Z,23.50
2023-05-25T09:00:17.225Z,25.83
2023-05-25T09:02:54.427Z,24.42
2023-05-25T09:05:29.298Z,24.25
2023-05-25T09:08:01.725Z,23.77
2023-05-25T09:10:35.597Z,23.70
2023-05-25T09:13:20.327Z,25.50
2023-05-25T09:15:53.710Z,24.15
2023-05-25T09:18:27.783Z,25.10
2023-05-25T09:20:58.833Z,26.67
2023-05-25T09:23:30.240Z,25.48
2023-05-25T09:26:01.701Z,23.92
2023-05-25T09:28:32.971Z,24.25
2023-05-25T09:31:04.230Z,25.25
2023-05-25T09:33:41.891Z,24.08
2023-05-25T09:36:18.344Z,24.25
2023-05-25T09:38:50.904Z,21.67
2023-05-25T09:41:22.587Z,24.08
2023-05-25T09:44:06.483Z,22.63
2023-05-25T09:46:41.771Z,24.98
2023-05-25T09:49:16.690Z,22.80
2023-05-25T09:51:49.158Z,23.27
2023-05-25T09:54:23.118Z,22.23
2023-05-25T09:56:54.848Z,21.35
2023-05-25T09:59:27.052Z,21.98
2023-05-25T10:02:05.810Z,24.50
2023-05-25T10:04:42.792Z,23.88
2023-05-25T10:07:14.342Z,21.00
2023-05-25T10:09:49.362Z,20.77
2023-05-25T10:12:23.492Z,23.27
2023-05-25T10:14:55.108Z,22.08
2023-05-25T10:17:27.577Z,23.40
2023-05-25T10:20:05.617Z,22.95
2023-05-25T10:22:47.599Z,23.25
2023-05-25T10:25:26.546Z,22.65
2023-05-25T10:28:03.221Z,21.02
2023-05-25T10:30:37.303Z,22.98
2023-05-25T10:33:09.458Z,23.90
2023-05-25T10:36:01.526Z,24.00
2023-05-25T10:38:37.264Z,22.60
2023-05-25T10:41:11.865Z,22.08
2023-05-25T10:43:44.100Z,24.52
2023-05-25T10:46:15.751Z,23.65
2023-05-25T10:48:52.079Z,22.52
2023-05-25T10:51:26.216Z,26.52
2023-05-25T10:54:03.896Z,25.58
2023-05-25T10:56:35.420Z,26.13
2023-05-25T10:59:06.560Z,28.27
2023-05-25T11:01:54.733Z,26.30
2023-05-25T11:04:27.675Z,26.67
2023-05-25T11:07:14.651Z,28.95
2023-05-25T11:09:47.315Z,28.05
2023-05-25T11:12:24.057Z,27.15
2023-05-25T11:15:15.789Z,30.27
2023-05-25T11:18:05.324Z,26.40
2023-05-25T11:20:38.497Z,24.17
2023-05-25T11:23:30.243Z,24.45
2023-05-25T11:26:09.069Z,24.42
2023-05-25T11:28:49.607Z,23.35
2023-05-25T11:31:23.677Z,24.20
2023-05-25T11:33:58.667Z,23.90
2023-05-25T11:36:31.879Z,23.58
2023-05-25T11:39:17.528Z,23.05
2023-05-25T11:41:55.756Z,22.00
2023-05-25T11:44:32.009Z,20.35
2023-05-25T11:47:09.056Z,24.42
2023-05-25T11:49:46.383Z,22.52
2023-05-25T11:52:18.564Z,21.20
2023-05-25T11:54:53.541Z,23.33
2023-05-25T11:57:25.726Z,22.63
2023-05-25T12:00:00.728Z,22.15
2023-05-25T12:02:40.209Z,22.80
2023-05-25T12:05:12.116Z,23.23
2023-05-25T12:07:47.329Z,22.50
2023-05-25T12:10:21.739Z,22.83
2023-05-25T12:12:58.566Z,22.90
2023-05-25T12:15:30.764Z,21.13
2023-05-25T12:18:01.790Z,21.30
2023-05-25T12:20:33.637Z,20.85
2023-05-25T12:23:04.684Z,20.05
2023-05-25T12:25:49.828Z,18.38
2023-05-25T12:28:22.562Z,19.50
2023-05-25T12:30:53.919Z,19.52
2023-05-25T12:33:25.325Z,17.90
2023-05-25T12:35:56.796Z,16.65
2023-05-25T12:38:27.688Z,16.67
2023-05-25T12:41:11.416Z,17.92
2023-05-25T12:43:44.306Z,17.27
2023-05-25T12:46:27.941Z,15.88
2023-05-25T12:48:58.912Z,16.85
2023-05-25T12:51:40.503Z,15.07
2023-05-25T12:54:11.612Z,13.65
2023-05-25T12:57:02.693Z,12.73
2023-05-25T12:59:33.871Z,11.93
2023-05-25T13:02:05.718Z,11.45
2023-05-25T13:04:37.112Z,10.75
2023-05-25T13:07:09.635Z,10.30
2023-05-25T13:09:41.003Z,9.68
2023-05-25T13:12:14.902Z,8.88
2023-05-25T13:14:46.830Z,9.40
2023-05-25T13:17:18.653Z,9.57
2023-05-25T13:19:49.699Z,9.02
2023-05-25T13:22:21.431Z,8.60
2023-05-25T13:24:52.466Z,8.52
2023-05-25T13:27:26.622Z,7.90
2023-05-25T13:29:57.572Z,8.95
2023-05-25T13:32:31.806Z,8.20
2023-05-25T13:35:07.444Z,7.57
2023-05-25T13:37:38.728Z,8.75
2023-05-25T13:40:11.445Z,8.75
2023-05-25T13:42:45.419Z,9.75
2023-05-25T13:45:16.401Z,8.65
2023-05-25T13:47:47.897Z,9.13
2023-05-25T13:50:24.251Z,9.13
2023-05-25T13:53:06.366Z,9.50
2023-05-25T13:55:38.634Z,8.25
2023-05-25T13:58:12.657Z,10.68
2023-05-25T14:00:43.696Z,10.80
2023-05-25T14:03:21.717Z,10.50
2023-05-25T14:05:54.185Z,10.65
2023-05-25T14:08:25.571Z,10.80
2023-05-25T14:10:57.677Z,10.77
2023-05-25T14:13:31.693Z,11.70
2023-05-25T14:16:03.850Z,18.38
2023-05-25T14:18:35.702Z,25.95
2023-05-25T14:21:06.913Z,31.55
2023-05-25T14:23:38.500Z,27.13
2023-05-25T14:26:09.462Z,22.73
2023-05-25T14:28:48.734Z,20.77
2023-05-25T14:31:19.942Z,15.73
2023-05-25T14:33:51.227Z,14.35
2023-05-25T14:36:22.346Z,15.20
2023-05-25T14:38:57.646Z,11.73
2023-05-25T14:41:28.689Z,19.50
2023-05-25T14:44:02.703Z,9.25
2023-05-25T14:46:33.636Z,7.80
2023-05-25T14:49:07.390Z,8.45
2023-05-25T14:51:38.354Z,14.82
2023-05-25T14:54:13.898Z,7.10
2023-05-25T14:56:44.832Z,9.18
2023-05-25T14:59:18.831Z,10.60
2023-05-25T15:01:49.834Z,7.22
2023-05-25T15:04:21.393Z,7.40
2023-05-25T15:06:52.628Z,15.13
2023-05-25T15:09:23.920Z,9.07
2023-05-25T15:11:54.778Z,7.18
2023-05-25T15:14:28.748Z,7.15
2023-05-25T15:17:03.045Z,6.38
2023-05-25T15:19:34.486Z,7.78
2023-05-25T15:22:08.415Z,8.23
2023-05-25T15:24:39.897Z,9.07
2023-05-25T15:27:11.249Z,9.63
2023-05-25T15:29:47.843Z,8.30
2023-05-25T15:32:22.346Z,6.07
2023-05-25T15:34:55.873Z,6.90
2023-05-25T15:37:27.231Z,7.80
2023-05-25T15:39:59.026Z,6.63
2023-05-25T15:42:30.076Z,6.60
2023-05-25T15:45:04.173Z,6.90
2023-05-25T15:47:35.104Z,9.05
2023-05-25T15:53:27.556Z,5.95
2023-05-25T15:56:01.704Z,9.10
2023-05-25T15:58:34.736Z,7.18
2023-05-25T16:01:10.104Z,7.03
2023-05-25T16:03:45.153Z,6.53
2023-05-25T16:06:16.741Z,6.97
2023-05-25T16:08:47.760Z,7.28
2023-05-25T16:11:20.826Z,6.30
2023-05-25T16:13:51.758Z,7.18
2023-05-25T16:16:25.717Z,7.80
2023-05-25T16:18:56.857Z,6.97
2023-05-25T16:21:28.398Z,7.38
2023-05-25T16:23:59.304Z,6.15
2023-05-25T16:26:30.577Z,7.00
2023-05-25T16:29:05.769Z,6.63
2023-05-25T16:31:39.872Z,6.75
2023-05-25T16:34:10.795Z,6.93
2023-05-25T16:36:42.054Z,6.95
2023-05-25T16:41:48.223Z,7.03
2023-05-25T16:44:20.491Z,7.28
2023-05-25T16:47:09.307Z,7.50
2023-05-25T16:49:40.846Z,7.07
2023-05-25T16:52:12.381Z,6.68
2023-05-25T16:54:43.243Z,12.57
2023-05-25T16:57:14.546Z,9.43
2023-05-25T16:59:46.087Z,7.85
2023-05-25T17:02:20.504Z,8.48
2023-05-25T17:08:20.932Z,9.82
2023-05-25T17:10:56.970Z,11.00
2023-05-25T17:13:37.411Z,9.55
2023-05-25T17:16:08.846Z,9.85
2023-05-25T17:18:43.183Z,9.40
2023-05-25T17:21:17.883Z,31.63
2023-05-25T17:23:49.470Z,15.30
2023-05-25T17:26:20.432Z,10.57
2023-05-25T17:28:52.028Z,9.07
2023-05-25T17:31:23.396Z,8.43
2023-05-25T17:33:57.409Z,8.55
2023-05-25T17:36:28.553Z,9.23
2023-05-25T17:38:59.767Z,9.88
2023-05-25T17:44:02.369Z,9.00
2023-05-25T17:51:37.934Z,8.93
2023-05-25T17:54:09.465Z,11.18
2023-05-25T17:56:40.382Z,12.68
2023-05-25T17:59:11.581Z,10.63
2023-05-25T18:04:16.443Z,10.35
2023-05-25T18:06:47.423Z,11.30
2023-05-25T18:09:18.615Z,9.93
2023-05-25T18:21:56.256Z,14.10
2023-05-25T18:24:28.219Z,22.35
2023-05-25T18:27:00.167Z,13.02
2023-05-25T18:29:31.658Z,16.70
2023-05-25T18:32:02.579Z,24.30
2023-05-25T18:34:36.757Z,12.45
2023-05-25T18:37:08.048Z,11.73
2023-05-25T18:39:39.365Z,11.60
2023-05-25T18:44:50.728Z,11.07
2023-05-25T18:47:21.832Z,10.80
2023-05-25T18:49:56.930Z,10.13
2023-05-25T18:52:38.396Z,11.18
2023-05-25T18:55:11.289Z,11.52
2023-05-25T18:57:42.401Z,12.88
2023-05-25T19:00:15.607Z,11.10
2023-05-25T19:02:47.395Z,11.85
2023-05-25T19:05:23.002Z,11.52
2023-05-25T19:07:59.244Z,11.32
2023-05-25T19:10:31.813Z,10.93
2023-05-25T19:13:03.294Z,10.68
2023-05-25T19:15:34.769Z,9.57
2023-05-25T19:18:09.847Z,10.30
2023-05-25T19:20:43.789Z,10.00
2023-05-25T19:23:15.025Z,9.40
2023-05-25T19:25:47.054Z,10.00
2023-05-25T19:28:18.253Z,8.82
2023-05-25T19:30:49.682Z,8.85
2023-05-25T19:33:20.824Z,8.70
2023-05-25T19:35:55.416Z,7.25
2023-05-25T19:38:34.290Z,7.38
2023-05-25T19:41:12.446Z,6.07
2023-05-25T19:43:44.093Z,7.05
2023-05-25T19:46:15.377Z,7.30
2023-05-25T19:51:21.185Z,6.40
2023-05-25T19:53:52.707Z,6.43
2023-05-25T19:56:24.385Z,6.43
2023-05-25T19:58:58.336Z,18.60
2023-05-25T20:01:30.151Z,7.15
2023-05-25T20:04:02.111Z,6.53
2023-05-25T20:06:39.221Z,6.68
2023-05-25T20:09:12.836Z,6.53
2023-05-25T20:11:44.611Z,6.68
2023-05-25T20:14:16.531Z,6.63
2023-05-25T20:16:52.291Z,6.28
2023-05-25T20:19:23.792Z,6.00
2023-05-25T20:21:58.195Z,6.15
2023-05-25T20:24:29.280Z,6.38
2023-05-25T20:27:00.503Z,5.72
2023-05-25T20:32:03.019Z,7.13
2023-05-25T20:34:34.730Z,7.30
2023-05-25T20:37:08.976Z,7.70
2023-05-25T20:39:40.077Z,6.55
2023-05-25T20:42:14.420Z,6.80
2023-05-25T20:44:46.168Z,6.13
2023-05-25T20:47:17.577Z,5.43
2023-05-25T20:49:48.742Z,6.03
2023-05-25T20:52:22.701Z,6.45
2023-05-25T20:54:53.711Z,5.95
2023-05-25T20:57:24.998Z,6.05
2023-05-25T21:00:00.061Z,5.90
2023-05-25T21:02:31.676Z,6.63
2023-05-25T21:05:02.633Z,6.20
2023-05-25T21:07:36.449Z,6.28
2023-05-25T21:10:08.155Z,6.35
2023-05-25T21:12:39.379Z,6.00
2023-05-25T21:17:42.575Z,6.53
2023-05-25T21:20:14.382Z,6.68
2023-05-25T21:22:48.522Z,7.00
2023-05-25T21:25:19.445Z,7.22
2023-05-25T21:27:50.836Z,7.00
2023-05-25T21:30:22.453Z,6.70
2023-05-25T21:32:54.267Z,6.63
2023-05-25T21:35:25.269Z,6.93
2023-05-25T21:37:59.251Z,6.80
2023-05-25T21:40:30.201Z,6.68
2023-05-25T21:43:01.604Z,6.68
2023-05-25T21:45:32.463Z,6.68
2023-05-25T21:48:03.738Z,6.75
2023-05-25T21:53:10.044Z,7.43
2023-05-25T21:55:41.380Z,7.68
2023-05-25T21:58:12.464Z,8.20
2023-05-25T22:00:43.505Z,7.35
2023-05-25T22:03:14.981Z,7.93
2023-05-25T22:05:46.934Z,8.15
2023-05-25T22:08:20.965Z,7.97
2023-05-25T22:10:52.015Z,8.15
2023-05-25T22:13:23.171Z,8.70
2023-05-25T22:15:53.924Z,8.57
2023-05-25T22:18:24.951Z,8.50
2023-05-25T22:20:56.414Z,8.50
2023-05-25T22:23:30.108Z,9.07
2023-05-25T22:26:00.784Z,8.80
2023-05-25T22:28:31.840Z,9.18
2023-05-25T22:31:02.605Z,8.90
2023-05-25T22:33:33.797Z,9.23
2023-05-25T22:36:05.175Z,9.25
2023-05-25T22:38:38.804Z,9.05
2023-05-25T22:41:09.673Z,9.40
2023-05-25T22:43:40.916Z,9.07
2023-05-25T22:48:43.758Z,9.35
2023-05-25T22:51:15.025Z,21.85
2023-05-25T22:53:48.939Z,30.58
2023-05-25T22:56:20.334Z,10.32
2023-05-25T22:58:51.892Z,9.93
2023-05-25T23:01:22.775Z,9.10
2023-05-25T23:03:53.885Z,8.65
2023-05-25T23:06:24.806Z,8.75
2023-05-25T23:08:58.560Z,7.80
2023-05-25T23:11:29.294Z,8.70
2023-05-25T23:14:00.963Z,8.88
2023-05-25T23:16:31.690Z,8.77
2023-05-25T23:19:02.991Z,8.27
2023-05-25T23:24:08.107Z,8.25
2023-05-25T23:26:40.087Z,8.57
2023-05-25T23:29:11.162Z,8.90
2023-05-25T23:31:41.987Z,8.38
2023-05-25T23:34:13.090Z,9.82
2023-05-25T23:36:43.758Z,9.63
2023-05-25T23:39:17.470Z,8.50
2023-05-25T23:41:49.050Z,8.73
2023-05-25T23:44:20.170Z,8.90
2023-05-25T23:46:50.892Z,9.00
2023-05-25T23:49:22.153Z,9.07
2023-05-25T23:54:26.470Z,9.50
2023-05-25T23:56:57.624Z,9.57
2023-05-25T23:59:29.057Z,8.80
